< < Back
Terminal Aerodrome Forecast


Current Version              Previous Versions:   1  2  3  4  5  6  7  8  9  

Terminal Aerodrome Forecast

854
FTUS44 KBMX 201700 RRA
TAFMGM
TAF
KMGM 201748Z 2018/2118 03004KT P6SM OVC010
     FM201900 02005KT P6SM BKN015
     FM202300 03005KT P6SM BKN025
     FM210800 03004KT 5SM BR OVC010=



Latest METAR

480
SAUS80 KWBC 201900 RRA
MTRMGM
METAR KMGM 201853Z 36006KT 10SM OVC010 12/08 A3015 RMK AO2 SLP209
T01170078


USA.gov is the U.S. government's official web portal to all federal, state and local government web resources and services.